sensor_id;sensor_type;location;lat;lon;timestamp;P1;durP1;ratioP1;P2;durP2;ratioP2
15155;SDS011;7678;50.058;8.306;2023-04-29T11:03:43;2.83;;;2.40;;
15155;SDS011;7678;50.058;8.306;2023-04-29T11:06:21;4.83;;;3.70;;
15155;SDS011;7678;50.058;8.306;2023-04-29T11:09:01;3.20;;;2.90;;
15155;SDS011;7678;50.058;8.306;2023-04-29T11:11:45;12.27;;;7.37;;
15155;SDS011;7678;50.058;8.306;2023-04-29T11:14:20;4.73;;;3.60;;
15155;SDS011;7678;50.058;8.306;2023-04-29T11:16:53;3.43;;;3.13;;
15155;SDS011;7678;50.058;8.306;2023-04-29T11:19:29;3.20;;;2.90;;
15155;SDS011;7678;50.058;8.306;2023-04-29T11:24:59;4.53;;;3.50;;
15155;SDS011;7678;50.058;8.306;2023-04-29T11:27:29;4.13;;;3.73;;
15155;SDS011;7678;50.058;8.306;2023-04-29T11:30:02;3.93;;;2.37;;
15155;SDS011;7678;50.058;8.306;2023-04-29T11:32:33;3.57;;;2.67;;
15155;SDS011;7678;50.058;8.306;2023-04-29T11:37:49;2.77;;;2.10;;
15155;SDS011;7678;50.058;8.306;2023-04-29T11:40:18;2.40;;;2.20;;
15155;SDS011;7678;50.058;8.306;2023-04-29T11:42:47;2.50;;;2.30;;
15155;SDS011;7678;50.058;8.306;2023-04-29T11:45:17;3.80;;;2.30;;
15155;SDS011;7678;50.058;8.306;2023-04-29T11:47:49;2.20;;;2.00;;
15155;SDS011;7678;50.058;8.306;2023-04-29T11:50:21;2.57;;;2.20;;
15155;SDS011;7678;50.058;8.306;2023-04-29T11:52:50;4.20;;;2.60;;
15155;SDS011;7678;50.058;8.306;2023-04-29T11:55:18;2.00;;;1.80;;
15155;SDS011;7678;50.058;8.306;2023-04-29T11:57:47;4.63;;;2.30;;
15155;SDS011;7678;50.058;8.306;2023-04-29T12:00:18;2.57;;;2.27;;
15155;SDS011;7678;50.058;8.306;2023-04-29T12:02:52;2.33;;;2.10;;
15155;SDS011;7678;50.058;8.306;2023-04-29T12:05:25;2.73;;;2.33;;
15155;SDS011;7678;50.058;8.306;2023-04-29T12:07:53;3.00;;;1.90;;
15155;SDS011;7678;50.058;8.306;2023-04-29T12:10:21;5.43;;;2.03;;
15155;SDS011;7678;50.058;8.306;2023-04-29T12:12:53;1.80;;;1.70;;
15155;SDS011;7678;50.058;8.306;2023-04-29T12:15:27;1.60;;;1.43;;
15155;SDS011;7678;50.058;8.306;2023-04-29T12:17:56;2.67;;;2.10;;
15155;SDS011;7678;50.058;8.306;2023-04-29T12:20:26;3.60;;;1.93;;
15155;SDS011;7678;50.058;8.306;2023-04-29T12:22:55;3.03;;;2.40;;
15155;SDS011;7678;50.058;8.306;2023-04-29T12:25:25;3.03;;;2.73;;
15155;SDS011;7678;50.058;8.306;2023-04-29T12:27:57;5.33;;;1.80;;
15155;SDS011;7678;50.058;8.306;2023-04-29T12:30:26;2.53;;;2.33;;
15155;SDS011;7678;50.058;8.306;2023-04-29T12:32:54;2.60;;;2.27;;
15155;SDS011;7678;50.058;8.306;2023-04-29T12:35:22;3.37;;;2.40;;
15155;SDS011;7678;50.058;8.306;2023-04-29T12:37:53;2.40;;;2.20;;
15155;SDS011;7678;50.058;8.306;2023-04-29T12:40:26;2.13;;;1.93;;
15155;SDS011;7678;50.058;8.306;2023-04-29T12:42:56;2.50;;;2.30;;
15155;SDS011;7678;50.058;8.306;2023-04-29T12:45:28;3.30;;;2.03;;
15155;SDS011;7678;50.058;8.306;2023-04-29T12:47:58;2.30;;;2.10;;
15155;SDS011;7678;50.058;8.306;2023-04-29T12:50:29;2.40;;;2.20;;
15155;SDS011;7678;50.058;8.306;2023-04-29T12:53:01;2.20;;;1.90;;
15155;SDS011;7678;50.058;8.306;2023-04-29T12:55:32;1.90;;;1.80;;
15155;SDS011;7678;50.058;8.306;2023-04-29T12:58:01;2.17;;;1.90;;
15155;SDS011;7678;50.058;8.306;2023-04-29T13:00:31;2.37;;;1.97;;
15155;SDS011;7678;50.058;8.306;2023-04-29T13:03:02;2.53;;;2.10;;
15155;SDS011;7678;50.058;8.306;2023-04-29T13:05:31;2.53;;;2.33;;
15155;SDS011;7678;50.058;8.306;2023-04-29T13:08:01;2.83;;;2.50;;
15155;SDS011;7678;50.058;8.306;2023-04-29T13:10:31;2.60;;;2.40;;
15155;SDS011;7678;50.058;8.306;2023-04-29T13:13:00;2.80;;;2.60;;
15155;SDS011;7678;50.058;8.306;2023-04-29T13:15:35;3.07;;;2.70;;
15155;SDS011;7678;50.058;8.306;2023-04-29T13:18:04;3.50;;;2.80;;
15155;SDS011;7678;50.058;8.306;2023-04-29T13:20:32;3.43;;;2.63;;
15155;SDS011;7678;50.058;8.306;2023-04-29T13:23:09;2.67;;;2.47;;
15155;SDS011;7678;50.058;8.306;2023-04-29T13:25:37;3.03;;;2.73;;
15155;SDS011;7678;50.058;8.306;2023-04-29T13:28:06;2.40;;;2.20;;
15155;SDS011;7678;50.058;8.306;2023-04-29T13:30:40;2.70;;;2.30;;
15155;SDS011;7678;50.058;8.306;2023-04-29T13:33:08;2.57;;;2.20;;
15155;SDS011;7678;50.058;8.306;2023-04-29T13:35:38;2.70;;;2.50;;
15155;SDS011;7678;50.058;8.306;2023-04-29T13:38:08;3.37;;;2.90;;
15155;SDS011;7678;50.058;8.306;2023-04-29T13:40:37;3.40;;;2.57;;
15155;SDS011;7678;50.058;8.306;2023-04-29T13:43:12;4.00;;;3.00;;
15155;SDS011;7678;50.058;8.306;2023-04-29T13:45:54;4.20;;;3.77;;
15155;SDS011;7678;50.058;8.306;2023-04-29T13:48:25;3.53;;;3.23;;
15155;SDS011;7678;50.058;8.306;2023-04-29T13:51:13;5.00;;;3.90;;
15155;SDS011;7678;50.058;8.306;2023-04-29T13:54:03;4.37;;;3.97;;
15155;SDS011;7678;50.058;8.306;2023-04-29T13:56:34;4.37;;;3.97;;
15155;SDS011;7678;50.058;8.306;2023-04-29T13:59:05;5.13;;;4.53;;
15155;SDS011;7678;50.058;8.306;2023-04-29T14:01:39;4.60;;;4.20;;
15155;SDS011;7678;50.058;8.306;2023-04-29T14:04:13;4.60;;;4.20;;
15155;SDS011;7678;50.058;8.306;2023-04-29T14:06:41;4.63;;;3.53;;
15155;SDS011;7678;50.058;8.306;2023-04-29T14:09:11;4.40;;;4.00;;
15155;SDS011;7678;50.058;8.306;2023-04-29T14:11:40;4.00;;;3.70;;
15155;SDS011;7678;50.058;8.306;2023-04-29T14:14:19;3.87;;;3.30;;
15155;SDS011;7678;50.058;8.306;2023-04-29T14:16:50;4.90;;;3.70;;
15155;SDS011;7678;50.058;8.306;2023-04-29T14:19:18;4.00;;;3.60;;
15155;SDS011;7678;50.058;8.306;2023-04-29T14:21:45;3.73;;;3.40;;
15155;SDS011;7678;50.058;8.306;2023-04-29T14:24:15;5.00;;;3.70;;
15155;SDS011;7678;50.058;8.306;2023-04-29T14:26:47;5.13;;;4.63;;
15155;SDS011;7678;50.058;8.306;2023-04-29T14:31:22;7.80;;;3.70;;
15155;SDS011;7678;50.058;8.306;2023-04-29T14:33:50;4.23;;;3.83;;
15155;SDS011;7678;50.058;8.306;2023-04-29T14:36:19;3.93;;;3.63;;
15155;SDS011;7678;50.058;8.306;2023-04-29T14:38:47;4.50;;;4.10;;
15155;SDS011;7678;50.058;8.306;2023-04-29T14:41:18;4.60;;;4.20;;
15155;SDS011;7678;50.058;8.306;2023-04-29T14:43:47;4.40;;;4.00;;
15155;SDS011;7678;50.058;8.306;2023-04-29T14:46:17;4.57;;;4.17;;
15155;SDS011;7678;50.058;8.306;2023-04-29T14:48:49;5.20;;;4.70;;
15155;SDS011;7678;50.058;8.306;2023-04-29T14:51:17;5.80;;;4.47;;
15155;SDS011;7678;50.058;8.306;2023-04-29T14:53:49;5.73;;;4.27;;
15155;SDS011;7678;50.058;8.306;2023-04-29T14:56:18;4.77;;;4.30;;
15155;SDS011;7678;50.058;8.306;2023-04-29T14:58:46;4.70;;;4.30;;
15155;SDS011;7678;50.058;8.306;2023-04-29T15:01:14;5.70;;;4.80;;
15155;SDS011;7678;50.058;8.306;2023-04-29T15:03:42;8.23;;;6.17;;
15155;SDS011;7678;50.058;8.306;2023-04-29T15:06:15;6.70;;;6.00;;
15155;SDS011;7678;50.058;8.306;2023-04-29T15:08:43;6.70;;;5.63;;
15155;SDS011;7678;50.058;8.306;2023-04-29T15:11:12;7.03;;;6.17;;
15155;SDS011;7678;50.058;8.306;2023-04-29T15:13:41;8.00;;;6.10;;
15155;SDS011;7678;50.058;8.306;2023-04-29T15:16:09;9.57;;;6.97;;
15155;SDS011;7678;50.058;8.306;2023-04-29T15:18:38;8.23;;;6.67;;
15155;SDS011;7678;50.058;8.306;2023-04-29T15:21:11;10.93;;;9.07;;
15155;SDS011;7678;50.058;8.306;2023-04-29T15:23:40;11.20;;;7.63;;
15155;SDS011;7678;50.058;8.306;2023-04-29T15:26:13;7.13;;;6.20;;
15155;SDS011;7678;50.058;8.306;2023-04-29T15:28:44;5.83;;;5.33;;
15155;SDS011;7678;50.058;8.306;2023-04-29T15:31:12;28.03;;;20.10;;
15155;SDS011;7678;50.058;8.306;2023-04-29T15:33:44;9.77;;;8.60;;
15155;SDS011;7678;50.058;8.306;2023-04-29T15:36:12;8.47;;;6.53;;
15155;SDS011;7678;50.058;8.306;2023-04-29T15:38:44;12.00;;;8.53;;
15155;SDS011;7678;50.058;8.306;2023-04-29T15:41:12;9.23;;;6.20;;
15155;SDS011;7678;50.058;8.306;2023-04-29T15:43:41;6.57;;;5.97;;
15155;SDS011;7678;50.058;8.306;2023-04-29T15:46:09;7.50;;;6.70;;
15155;SDS011;7678;50.058;8.306;2023-04-29T15:48:40;6.67;;;5.97;;
15155;SDS011;7678;50.058;8.306;2023-04-29T15:51:08;7.70;;;6.20;;
15155;SDS011;7678;50.058;8.306;2023-04-29T15:53:39;8.43;;;6.40;;
15155;SDS011;7678;50.058;8.306;2023-04-29T15:56:09;7.87;;;6.47;;
15155;SDS011;7678;50.058;8.306;2023-04-29T15:58:40;6.27;;;5.67;;
15155;SDS011;7678;50.058;8.306;2023-04-29T16:01:08;9.00;;;7.43;;
15155;SDS011;7678;50.058;8.306;2023-04-29T16:03:36;7.97;;;5.93;;
15155;SDS011;7678;50.058;8.306;2023-04-29T16:06:04;7.93;;;6.93;;
15155;SDS011;7678;50.058;8.306;2023-04-29T16:08:33;8.17;;;6.30;;
15155;SDS011;7678;50.058;8.306;2023-04-29T16:11:01;9.80;;;6.73;;
15155;SDS011;7678;50.058;8.306;2023-04-29T16:13:31;10.30;;;7.23;;
15155;SDS011;7678;50.058;8.306;2023-04-29T16:16:07;7.77;;;6.30;;
15155;SDS011;7678;50.058;8.306;2023-04-29T16:18:36;9.90;;;6.93;;
15155;SDS011;7678;50.058;8.306;2023-04-29T16:21:05;8.63;;;6.97;;
15155;SDS011;7678;50.058;8.306;2023-04-29T16:23:33;8.00;;;6.47;;
15155;SDS011;7678;50.058;8.306;2023-04-29T16:26:01;8.90;;;7.40;;
15155;SDS011;7678;50.058;8.306;2023-04-29T16:28:31;10.20;;;7.67;;
15155;SDS011;7678;50.058;8.306;2023-04-29T16:31:00;8.23;;;7.17;;
15155;SDS011;7678;50.058;8.306;2023-04-29T16:33:31;7.63;;;6.70;;
15155;SDS011;7678;50.058;8.306;2023-04-29T16:36:01;8.93;;;7.27;;
15155;SDS011;7678;50.058;8.306;2023-04-29T16:38:31;9.00;;;7.90;;
15155;SDS011;7678;50.058;8.306;2023-04-29T16:40:59;9.13;;;7.80;;
15155;SDS011;7678;50.058;8.306;2023-04-29T16:43:37;8.60;;;7.30;;
15155;SDS011;7678;50.058;8.306;2023-04-29T16:46:13;8.00;;;6.80;;
15155;SDS011;7678;50.058;8.306;2023-04-29T16:48:42;10.40;;;7.93;;
15155;SDS011;7678;50.058;8.306;2023-04-29T16:51:12;7.37;;;6.53;;
15155;SDS011;7678;50.058;8.306;2023-04-29T16:53:44;8.60;;;7.57;;
15155;SDS011;7678;50.058;8.306;2023-04-29T16:56:21;7.83;;;7.00;;
15155;SDS011;7678;50.058;8.306;2023-04-29T16:58:50;7.63;;;6.53;;
15155;SDS011;7678;50.058;8.306;2023-04-29T17:01:18;8.53;;;5.80;;
15155;SDS011;7678;50.058;8.306;2023-04-29T17:03:47;7.47;;;6.67;;
15155;SDS011;7678;50.058;8.306;2023-04-29T17:06:16;7.97;;;6.33;;
15155;SDS011;7678;50.058;8.306;2023-04-29T17:08:46;6.90;;;5.97;;
15155;SDS011;7678;50.058;8.306;2023-04-29T17:11:17;6.43;;;5.57;;
15155;SDS011;7678;50.058;8.306;2023-04-29T17:13:45;6.23;;;5.40;;
15155;SDS011;7678;50.058;8.306;2023-04-29T17:16:17;6.53;;;5.60;;
15155;SDS011;7678;50.058;8.306;2023-04-29T17:18:45;7.73;;;5.97;;
15155;SDS011;7678;50.058;8.306;2023-04-29T17:21:13;7.00;;;5.20;;
15155;SDS011;7678;50.058;8.306;2023-04-29T17:23:44;8.37;;;5.20;;
15155;SDS011;7678;50.058;8.306;2023-04-29T17:26:13;6.40;;;5.20;;
15155;SDS011;7678;50.058;8.306;2023-04-29T17:28:41;5.20;;;4.70;;
15155;SDS011;7678;50.058;8.306;2023-04-29T17:31:09;5.87;;;5.27;;
15155;SDS011;7678;50.058;8.306;2023-04-29T17:33:45;5.73;;;5.10;;
15155;SDS011;7678;50.058;8.306;2023-04-29T17:36:33;8.63;;;5.03;;
15155;SDS011;7678;50.058;8.306;2023-04-29T17:39:03;5.80;;;5.20;;
15155;SDS011;7678;50.058;8.306;2023-04-29T17:41:36;5.93;;;5.33;;
15155;SDS011;7678;50.058;8.306;2023-04-29T17:44:04;9.43;;;8.47;;
15155;SDS011;7678;50.058;8.306;2023-04-29T17:46:33;6.97;;;6.20;;
15155;SDS011;7678;50.058;8.306;2023-04-29T17:49:04;6.70;;;6.00;;
15155;SDS011;7678;50.058;8.306;2023-04-29T17:51:32;7.23;;;6.33;;
15155;SDS011;7678;50.058;8.306;2023-04-29T17:54:00;6.70;;;6.00;;
15155;SDS011;7678;50.058;8.306;2023-04-29T17:56:32;7.80;;;7.00;;
15155;SDS011;7678;50.058;8.306;2023-04-29T17:59:03;6.57;;;5.97;;
15155;SDS011;7678;50.058;8.306;2023-04-29T18:01:32;7.13;;;6.40;;
15155;SDS011;7678;50.058;8.306;2023-04-29T18:04:01;7.43;;;6.73;;
15155;SDS011;7678;50.058;8.306;2023-04-29T18:06:31;6.90;;;6.20;;
15155;SDS011;7678;50.058;8.306;2023-04-29T18:09:03;7.03;;;5.53;;
15155;SDS011;7678;50.058;8.306;2023-04-29T18:11:31;7.77;;;6.80;;
15155;SDS011;7678;50.058;8.306;2023-04-29T18:13:59;7.80;;;6.30;;
15155;SDS011;7678;50.058;8.306;2023-04-29T18:16:28;7.13;;;6.43;;
15155;SDS011;7678;50.058;8.306;2023-04-29T18:18:57;7.50;;;6.50;;
15155;SDS011;7678;50.058;8.306;2023-04-29T18:21:26;7.10;;;6.40;;
15155;SDS011;7678;50.058;8.306;2023-04-29T18:23:57;7.50;;;6.27;;
15155;SDS011;7678;50.058;8.306;2023-04-29T18:26:25;7.50;;;6.60;;
15155;SDS011;7678;50.058;8.306;2023-04-29T18:28:54;6.93;;;6.23;;
15155;SDS011;7678;50.058;8.306;2023-04-29T18:31:22;7.87;;;6.57;;
15155;SDS011;7678;50.058;8.306;2023-04-29T18:33:56;9.70;;;6.90;;
15155;SDS011;7678;50.058;8.306;2023-04-29T18:36:24;10.27;;;7.27;;
15155;SDS011;7678;50.058;8.306;2023-04-29T18:38:53;9.97;;;7.23;;
15155;SDS011;7678;50.058;8.306;2023-04-29T18:41:25;8.07;;;6.80;;
15155;SDS011;7678;50.058;8.306;2023-04-29T18:43:53;7.50;;;6.50;;
15155;SDS011;7678;50.058;8.306;2023-04-29T18:46:21;8.17;;;7.30;;
15155;SDS011;7678;50.058;8.306;2023-04-29T18:48:49;9.13;;;7.83;;
15155;SDS011;7678;50.058;8.306;2023-04-29T18:51:17;7.77;;;6.90;;
15155;SDS011;7678;50.058;8.306;2023-04-29T18:53:47;7.97;;;7.17;;
15155;SDS011;7678;50.058;8.306;2023-04-29T18:56:16;9.30;;;7.67;;
15155;SDS011;7678;50.058;8.306;2023-04-29T18:58:46;7.47;;;6.77;;
15155;SDS011;7678;50.058;8.306;2023-04-29T19:01:14;9.77;;;7.40;;
15155;SDS011;7678;50.058;8.306;2023-04-29T19:03:44;8.67;;;7.47;;
15155;SDS011;7678;50.058;8.306;2023-04-29T19:06:16;8.03;;;7.23;;
15155;SDS011;7678;50.058;8.306;2023-04-29T19:08:45;8.23;;;7.37;;
15155;SDS011;7678;50.058;8.306;2023-04-29T19:11:13;9.20;;;7.60;;
15155;SDS011;7678;50.058;8.306;2023-04-29T19:13:41;9.57;;;8.17;;
15155;SDS011;7678;50.058;8.306;2023-04-29T19:16:11;9.47;;;7.60;;
15155;SDS011;7678;50.058;8.306;2023-04-29T19:18:40;8.90;;;8.00;;
15155;SDS011;7678;50.058;8.306;2023-04-29T19:21:08;8.57;;;7.67;;
15155;SDS011;7678;50.058;8.306;2023-04-29T19:23:37;8.53;;;7.37;;
15155;SDS011;7678;50.058;8.306;2023-04-29T19:26:06;9.97;;;7.57;;
15155;SDS011;7678;50.058;8.306;2023-04-29T19:28:35;10.80;;;7.67;;
15155;SDS011;7678;50.058;8.306;2023-04-29T19:31:04;7.90;;;7.10;;
15155;SDS011;7678;50.058;8.306;2023-04-29T19:33:33;7.70;;;7.00;;
15155;SDS011;7678;50.058;8.306;2023-04-29T19:36:03;7.70;;;7.00;;
15155;SDS011;7678;50.058;8.306;2023-04-29T19:38:32;8.10;;;7.00;;
15155;SDS011;7678;50.058;8.306;2023-04-29T19:41:00;9.20;;;8.30;;
15155;SDS011;7678;50.058;8.306;2023-04-29T19:43:28;8.13;;;7.33;;
15155;SDS011;7678;50.058;8.306;2023-04-29T19:45:57;9.47;;;7.87;;
15155;SDS011;7678;50.058;8.306;2023-04-29T19:48:25;9.03;;;7.90;;
15155;SDS011;7678;50.058;8.306;2023-04-29T19:50:57;9.93;;;8.33;;
15155;SDS011;7678;50.058;8.306;2023-04-29T19:53:26;9.10;;;8.20;;
15155;SDS011;7678;50.058;8.306;2023-04-29T19:55:55;9.17;;;8.23;;
15155;SDS011;7678;50.058;8.306;2023-04-29T19:58:23;9.67;;;8.40;;
15155;SDS011;7678;50.058;8.306;2023-04-29T20:00:51;9.40;;;8.50;;
15155;SDS011;7678;50.058;8.306;2023-04-29T20:03:19;10.17;;;9.03;;
15155;SDS011;7678;50.058;8.306;2023-04-29T20:05:47;11.07;;;8.90;;
15155;SDS011;7678;50.058;8.306;2023-04-29T20:08:17;10.43;;;8.83;;
15155;SDS011;7678;50.058;8.306;2023-04-29T20:10:45;10.67;;;9.53;;
15155;SDS011;7678;50.058;8.306;2023-04-29T20:13:13;11.13;;;8.40;;
15155;SDS011;7678;50.058;8.306;2023-04-29T20:15:41;10.70;;;8.80;;
15155;SDS011;7678;50.058;8.306;2023-04-29T20:18:10;11.93;;;9.33;;
15155;SDS011;7678;50.058;8.306;2023-04-29T20:20:39;11.00;;;9.17;;
15155;SDS011;7678;50.058;8.306;2023-04-29T20:23:11;10.87;;;9.23;;
15155;SDS011;7678;50.058;8.306;2023-04-29T20:25:40;10.57;;;9.57;;
15155;SDS011;7678;50.058;8.306;2023-04-29T20:28:09;11.70;;;9.27;;
15155;SDS011;7678;50.058;8.306;2023-04-29T20:30:37;10.43;;;9.27;;
15155;SDS011;7678;50.058;8.306;2023-04-29T20:33:09;10.07;;;9.07;;
15155;SDS011;7678;50.058;8.306;2023-04-29T20:35:39;10.10;;;9.00;;
15155;SDS011;7678;50.058;8.306;2023-04-29T20:38:07;9.97;;;8.80;;
15155;SDS011;7678;50.058;8.306;2023-04-29T20:40:36;11.83;;;9.13;;
15155;SDS011;7678;50.058;8.306;2023-04-29T20:43:06;13.40;;;9.40;;
15155;SDS011;7678;50.058;8.306;2023-04-29T20:45:34;12.00;;;9.97;;
15155;SDS011;7678;50.058;8.306;2023-04-29T20:48:03;11.80;;;10.50;;
15155;SDS011;7678;50.058;8.306;2023-04-29T20:50:32;13.77;;;10.47;;
15155;SDS011;7678;50.058;8.306;2023-04-29T20:53:00;12.23;;;10.07;;
15155;SDS011;7678;50.058;8.306;2023-04-29T20:55:29;11.53;;;9.30;;
15155;SDS011;7678;50.058;8.306;2023-04-29T20:57:57;11.33;;;9.37;;
15155;SDS011;7678;50.058;8.306;2023-04-29T21:00:26;10.33;;;9.23;;
15155;SDS011;7678;50.058;8.306;2023-04-29T21:02:56;10.87;;;9.77;;
15155;SDS011;7678;50.058;8.306;2023-04-29T21:05:24;10.83;;;9.50;;
15155;SDS011;7678;50.058;8.306;2023-04-29T21:07:55;9.73;;;8.73;;
15155;SDS011;7678;50.058;8.306;2023-04-29T21:10:24;12.13;;;8.90;;
15155;SDS011;7678;50.058;8.306;2023-04-29T21:12:52;11.33;;;8.97;;
15155;SDS011;7678;50.058;8.306;2023-04-29T21:15:20;11.10;;;8.97;;
15155;SDS011;7678;50.058;8.306;2023-04-29T21:17:50;11.47;;;10.27;;
15155;SDS011;7678;50.058;8.306;2023-04-29T21:20:18;10.33;;;9.20;;
15155;SDS011;7678;50.058;8.306;2023-04-29T21:22:47;12.57;;;10.57;;
15155;SDS011;7678;50.058;8.306;2023-04-29T21:25:14;10.90;;;9.80;;
15155;SDS011;7678;50.058;8.306;2023-04-29T21:27:43;12.13;;;10.83;;
15155;SDS011;7678;50.058;8.306;2023-04-29T21:30:11;11.53;;;10.27;;
15155;SDS011;7678;50.058;8.306;2023-04-29T21:32:39;11.97;;;10.77;;
15155;SDS011;7678;50.058;8.306;2023-04-29T21:35:09;11.80;;;10.60;;
15155;SDS011;7678;50.058;8.306;2023-04-29T21:37:37;12.47;;;11.27;;
15155;SDS011;7678;50.058;8.306;2023-04-29T21:40:06;12.13;;;10.93;;
15155;SDS011;7678;50.058;8.306;2023-04-29T21:42:34;13.03;;;10.93;;
15155;SDS011;7678;50.058;8.306;2023-04-29T21:45:03;11.53;;;10.30;;
15155;SDS011;7678;50.058;8.306;2023-04-29T21:47:32;12.03;;;10.30;;
15155;SDS011;7678;50.058;8.306;2023-04-29T21:50:03;12.27;;;10.63;;
15155;SDS011;7678;50.058;8.306;2023-04-29T21:52:33;11.87;;;10.67;;
15155;SDS011;7678;50.058;8.306;2023-04-29T21:55:02;11.07;;;9.97;;
15155;SDS011;7678;50.058;8.306;2023-04-29T21:57:30;11.97;;;10.67;;
15155;SDS011;7678;50.058;8.306;2023-04-29T22:00:10;13.40;;;10.50;;
15155;SDS011;7678;50.058;8.306;2023-04-29T22:02:54;11.47;;;10.37;;
15155;SDS011;7678;50.058;8.306;2023-04-29T22:05:22;12.07;;;10.83;;
15155;SDS011;7678;50.058;8.306;2023-04-29T22:07:51;13.20;;;11.47;;
15155;SDS011;7678;50.058;8.306;2023-04-29T22:10:19;14.53;;;10.87;;
15155;SDS011;7678;50.058;8.306;2023-04-29T22:12:58;13.10;;;11.43;;
15155;SDS011;7678;50.058;8.306;2023-04-29T22:15:48;12.20;;;10.93;;
15155;SDS011;7678;50.058;8.306;2023-04-29T22:18:21;13.30;;;10.83;;
15155;SDS011;7678;50.058;8.306;2023-04-29T22:20:49;13.30;;;11.90;;
15155;SDS011;7678;50.058;8.306;2023-04-29T22:23:19;16.57;;;12.40;;
15155;SDS011;7678;50.058;8.306;2023-04-29T22:25:51;12.33;;;11.03;;
15155;SDS011;7678;50.058;8.306;2023-04-29T22:28:19;12.70;;;11.40;;
15155;SDS011;7678;50.058;8.306;2023-04-29T22:30:54;13.37;;;11.20;;
15155;SDS011;7678;50.058;8.306;2023-04-29T22:33:22;12.43;;;11.23;;
15155;SDS011;7678;50.058;8.306;2023-04-29T22:35:50;13.03;;;11.40;;
15155;SDS011;7678;50.058;8.306;2023-04-29T22:38:24;12.23;;;10.70;;
15155;SDS011;7678;50.058;8.306;2023-04-29T22:40:52;11.67;;;10.47;;
15155;SDS011;7678;50.058;8.306;2023-04-29T22:43:20;12.07;;;10.87;;
15155;SDS011;7678;50.058;8.306;2023-04-29T22:45:51;12.60;;;10.73;;
15155;SDS011;7678;50.058;8.306;2023-04-29T22:48:19;12.97;;;11.67;;
15155;SDS011;7678;50.058;8.306;2023-04-29T22:50:50;15.03;;;12.03;;
15155;SDS011;7678;50.058;8.306;2023-04-29T22:53:19;14.40;;;11.53;;
15155;SDS011;7678;50.058;8.306;2023-04-29T22:55:50;14.83;;;11.93;;
15155;SDS011;7678;50.058;8.306;2023-04-29T22:58:19;12.73;;;11.43;;
15155;SDS011;7678;50.058;8.306;2023-04-29T23:00:52;13.70;;;11.93;;
15155;SDS011;7678;50.058;8.306;2023-04-29T23:03:23;13.47;;;11.97;;
15155;SDS011;7678;50.058;8.306;2023-04-29T23:05:51;14.13;;;12.73;;
15155;SDS011;7678;50.058;8.306;2023-04-29T23:08:25;14.00;;;12.50;;
15155;SDS011;7678;50.058;8.306;2023-04-29T23:11:01;13.37;;;12.07;;
15155;SDS011;7678;50.058;8.306;2023-04-29T23:13:54;13.63;;;11.77;;
15155;SDS011;7678;50.058;8.306;2023-04-29T23:17:00;12.80;;;11.50;;
15155;SDS011;7678;50.058;8.306;2023-04-29T23:19:27;13.63;;;12.30;;
15155;SDS011;7678;50.058;8.306;2023-04-29T23:21:56;14.37;;;12.87;;
15155;SDS011;7678;50.058;8.306;2023-04-29T23:24:24;17.83;;;12.60;;
15155;SDS011;7678;50.058;8.306;2023-04-29T23:26:56;14.07;;;12.07;;
15155;SDS011;7678;50.058;8.306;2023-04-29T23:29:25;15.33;;;12.20;;
15155;SDS011;7678;50.058;8.306;2023-04-29T23:31:53;14.00;;;12.53;;
15155;SDS011;7678;50.058;8.306;2023-04-29T23:34:20;14.43;;;12.53;;
15155;SDS011;7678;50.058;8.306;2023-04-29T23:36:48;13.93;;;12.53;;
15155;SDS011;7678;50.058;8.306;2023-04-29T23:39:16;15.03;;;12.40;;
15155;SDS011;7678;50.058;8.306;2023-04-29T23:41:44;14.10;;;12.70;;
15155;SDS011;7678;50.058;8.306;2023-04-29T23:44:14;13.60;;;12.30;;
15155;SDS011;7678;50.058;8.306;2023-04-29T23:46:43;14.40;;;12.70;;
15155;SDS011;7678;50.058;8.306;2023-04-29T23:49:15;15.33;;;12.90;;
15155;SDS011;7678;50.058;8.306;2023-04-29T23:51:43;15.57;;;12.87;;
15155;SDS011;7678;50.058;8.306;2023-04-29T23:54:12;14.43;;;12.60;;
15155;SDS011;7678;50.058;8.306;2023-04-29T23:56:44;14.90;;;13.37;;
15155;SDS011;7678;50.058;8.306;2023-04-29T23:59:13;14.10;;;12.70;;
